Uglich, Russia
Current Conditions -  °F | °C
As of 12:00 AM on Wednesday 28 Jan 2015 (Local Time) from UUDL Reporting Station
Overcast Overcast  
Wind Chill: 11°   Ceiling: 3200
Heat Index: 18°   Visibility: 6mi
Dew Point: 12°   Wind: 4mph
Humidity: 79%   Direction: 170°S
Pressure: 29.97"   Gusts: NA
Location:  57.53°N, 38.33°E
Report Text: UUDL 272100Z 17002MPS 9999 OVC032 M08/M11 Q1015 NOSIG RMKQFE753 23750449
Loading
Personal Weather Stations






























Interactive Weather Map New forecast layout! Learn more

10-Day Weather Forecast

Advertisements
Track Severe Weather on mobile